Terminal Aerodrome Forecast
Issued by NWS Grand Forks, ND

Home | Current Version | Previous Version | Text Only | Print | Product List | Glossary On
Versions: 1 2 3 4 5 6 7 8 9 10 11 12 13 14 15 16
000
FTUS43 KFGF 281100
TAFGFK
TAF
KGFK 281133Z 2812/2912 16007KT P6SM BKN060 BKN200
     FM281800 18010G20KT P6SM VCSH SCT035 OVC050
      TEMPO 2820/2822 VRB25KT 4SM -TSRA OVC025CB
     FM290100 17009KT P6SM BKN050=

USA.gov is the U.S. government's official web portal to all federal, state and local government web resources and services.